createdAt,value
2023-05-21T00:00:39.747Z,99.2705
2023-05-21T00:01:42.453Z,99.2896
2023-05-21T00:02:44.924Z,99.3006
2023-05-21T00:03:46.911Z,99.3032
2023-05-21T00:04:48.698Z,99.3132
2023-05-21T00:06:51.869Z,99.3394
2023-05-21T00:07:53.534Z,99.3481
2023-05-21T00:08:55.210Z,99.3516
2023-05-21T00:09:57.520Z,99.3686
2023-05-21T00:10:59.845Z,99.3823
2023-05-21T00:12:02.217Z,99.3943
2023-05-21T00:13:04.735Z,99.4073
2023-05-21T00:14:06.405Z,99.4108
2023-05-21T00:15:08.290Z,99.4324
2023-05-21T00:16:10.164Z,99.4357
2023-05-21T00:17:12.418Z,99.4482
2023-05-21T00:18:14.760Z,99.4654
2023-05-21T00:19:17.957Z,99.4811
2023-05-21T00:26:29.185Z,99.5436
2023-05-21T00:27:31.702Z,99.5522
2023-05-21T00:28:33.355Z,99.5563
2023-05-21T00:29:35.010Z,99.5732
2023-05-21T00:30:37.829Z,99.5799
2023-05-21T00:31:39.532Z,99.5883
2023-05-21T00:32:41.240Z,99.5973
2023-05-21T00:33:44.009Z,99.6017
2023-05-21T00:35:44.367Z,99.6181
2023-05-21T00:36:46.019Z,99.6354
2023-05-21T00:37:47.688Z,99.6199
2023-05-21T00:38:51.037Z,99.6286
2023-05-21T00:40:52.763Z,99.6244
2023-05-21T00:41:54.847Z,99.6343
2023-05-21T00:43:58.322Z,99.6552
2023-05-21T00:45:00.008Z,99.6577
2023-05-21T00:48:04.620Z,99.6791
2023-05-21T00:49:06.301Z,99.6821
2023-05-21T00:50:07.953Z,99.6965
2023-05-21T00:51:09.591Z,99.7008
2023-05-21T00:52:10.164Z,99.7094
2023-05-21T00:53:11.807Z,99.7203
2023-05-21T00:54:14.546Z,99.7140
2023-05-21T00:55:16.203Z,99.7255
2023-05-21T00:56:17.849Z,99.7215
2023-05-21T00:57:19.518Z,99.7227
2023-05-21T00:58:21.154Z,99.7483
2023-05-21T00:59:22.833Z,99.7506
2023-05-21T01:00:24.506Z,99.7596
2023-05-21T01:01:26.182Z,99.7586
2023-05-21T01:02:27.823Z,99.7706
2023-05-21T01:03:29.611Z,99.7772
2023-05-21T01:04:31.302Z,99.7671
2023-05-21T01:05:33.089Z,99.7785
2023-05-21T01:06:34.837Z,99.7791
2023-05-21T01:07:36.510Z,99.7794
2023-05-21T01:08:38.193Z,99.7817
2023-05-21T01:10:41.318Z,99.7971
2023-05-21T01:11:44.157Z,99.7926
2023-05-21T01:20:57.144Z,99.8023
2023-05-21T01:21:59.485Z,99.7957
2023-05-21T01:23:01.787Z,99.7993
2023-05-21T01:24:04.210Z,99.7923
2023-05-21T01:25:05.952Z,99.7916
2023-05-21T01:26:08.278Z,99.7907
2023-05-21T01:27:10.676Z,99.7913
2023-05-21T01:28:12.955Z,99.7769
2023-05-21T01:29:14.646Z,99.7801
2023-05-21T01:30:16.263Z,99.7789
2023-05-21T01:31:18.597Z,99.7783
2023-05-21T01:32:20.219Z,99.7490
2023-05-21T01:34:23.408Z,99.7287
2023-05-21T01:35:25.152Z,99.7321
2023-05-21T01:36:26.850Z,99.7250
2023-05-21T01:37:29.131Z,99.7121
2023-05-21T01:38:31.438Z,99.7138
2023-05-21T01:39:33.741Z,99.7174
2023-05-21T01:40:36.040Z,99.7128
2023-05-21T01:41:37.674Z,99.7052
2023-05-21T01:42:40.266Z,99.7040
2023-05-21T01:43:42.647Z,99.7018
2023-05-21T01:44:45.262Z,99.7016
2023-05-21T01:45:47.704Z,99.6873
2023-05-21T01:46:49.390Z,99.6756
2023-05-21T01:47:51.888Z,99.6547
2023-05-21T01:48:53.517Z,99.6603
2023-05-21T01:49:56.053Z,99.6548
2023-05-21T01:50:58.448Z,99.6570
2023-05-21T01:52:00.777Z,99.6429
2023-05-21T01:53:03.199Z,99.6395
2023-05-21T01:54:05.190Z,99.6433
2023-05-21T01:55:07.575Z,99.6449
2023-05-21T01:56:09.204Z,99.6434
2023-05-21T01:57:11.162Z,99.6465
2023-05-21T01:59:14.335Z,99.6451
2023-05-21T02:00:15.996Z,99.6454
2023-05-21T02:01:17.762Z,99.6642
2023-05-21T02:02:20.158Z,99.6604
2023-05-21T02:03:22.748Z,99.6482
2023-05-21T02:04:25.089Z,99.6549
2023-05-21T02:05:27.065Z,99.6558
2023-05-21T02:07:30.903Z,99.6810
2023-05-21T02:08:32.555Z,99.6747
2023-05-21T02:09:34.251Z,99.6753
2023-05-21T02:11:38.223Z,99.6901
2023-05-21T02:12:40.933Z,99.6834
2023-05-21T02:13:42.577Z,99.6721
2023-05-21T02:14:44.825Z,99.6616
2023-05-21T02:15:47.086Z,99.6626
2023-05-21T02:16:49.448Z,99.6529
2023-05-21T02:17:51.194Z,99.6490
2023-05-21T02:18:52.852Z,99.6532
2023-05-21T02:19:54.470Z,99.6437
2023-05-21T02:20:56.117Z,99.6465
2023-05-21T02:21:57.816Z,99.6472
2023-05-21T02:22:59.421Z,99.6497
2023-05-21T02:24:02.399Z,99.6570
2023-05-21T02:25:07.226Z,99.6490
2023-05-21T02:32:13.077Z,99.5956
2023-05-21T02:33:14.779Z,99.6064
2023-05-21T02:34:16.451Z,99.6160
2023-05-21T02:35:18.097Z,99.6011
2023-05-21T02:36:19.768Z,99.5932
2023-05-21T02:37:21.454Z,99.6022
2023-05-21T02:38:23.240Z,99.5682
2023-05-21T02:39:24.940Z,99.5821
2023-05-21T02:40:26.589Z,99.5831
2023-05-21T02:41:28.241Z,99.5887
2023-05-21T02:42:30.532Z,99.5832
2023-05-21T02:43:32.874Z,99.6028
2023-05-21T02:44:34.551Z,99.6076
2023-05-21T02:45:36.456Z,99.6014
2023-05-21T02:46:38.830Z,99.6126
2023-05-21T02:47:41.448Z,99.6349
2023-05-21T02:48:43.848Z,99.6341
2023-05-21T02:49:46.573Z,99.6242
2023-05-21T02:50:48.194Z,99.6135
2023-05-21T02:51:49.859Z,99.6215
2023-05-21T02:52:51.519Z,99.6504
2023-05-21T02:53:53.440Z,99.6549
2023-05-21T02:54:55.101Z,99.6667
2023-05-21T02:56:59.738Z,99.6996
2023-05-21T03:03:06.843Z,99.7719
2023-05-21T03:04:09.083Z,99.7743
2023-05-21T03:05:10.717Z,99.7805
2023-05-21T03:06:12.367Z,99.7901
2023-05-21T03:08:16.162Z,99.8151
2023-05-21T03:09:17.867Z,99.8251
2023-05-21T03:10:19.553Z,99.8218
2023-05-21T03:12:23.970Z,99.8493
2023-05-21T03:13:25.635Z,99.8587
2023-05-21T03:14:27.309Z,99.8579
2023-05-21T03:15:28.952Z,99.8725
2023-05-21T03:16:30.606Z,99.8615
2023-05-21T03:18:34.697Z,99.8601
2023-05-21T03:21:39.409Z,99.8856
2023-05-21T03:22:42.406Z,99.8871
2023-05-21T03:25:45.051Z,99.9415
2023-05-21T03:26:47.388Z,99.9598
2023-05-21T03:27:49.752Z,99.9720
2023-05-21T03:28:51.403Z,99.9772
2023-05-21T03:29:53.102Z,99.9874
2023-05-21T03:30:54.897Z,99.9950
2023-05-21T03:31:56.714Z,99.9967
2023-05-21T03:32:58.457Z,99.9987
2023-05-21T03:34:00.697Z,99.9985
2023-05-21T03:35:02.389Z,100.0000
2023-05-21T03:36:04.082Z,100.0000
2023-05-21T03:38:07.331Z,99.9990
2023-05-21T03:39:09.061Z,100.0000
2023-05-21T03:40:10.763Z,100.0000
2023-05-21T03:41:12.467Z,100.0000
2023-05-21T03:43:15.698Z,100.0000
2023-05-21T03:44:17.421Z,100.0000
2023-05-21T03:45:20.243Z,100.0000
2023-05-21T03:55:35.691Z,100.0000
2023-05-21T03:56:37.475Z,100.0000
2023-05-21T03:57:39.147Z,100.0000
2023-05-21T03:58:40.860Z,100.0000
2023-05-21T03:59:42.510Z,100.0000
2023-05-21T04:00:44.198Z,100.0000
2023-05-21T04:01:45.890Z,100.0000
2023-05-21T04:02:47.688Z,100.0000
2023-05-21T04:03:50.214Z,100.0000
2023-05-21T04:04:52.220Z,100.0000
2023-05-21T04:05:53.910Z,100.0000
2023-05-21T04:06:55.565Z,100.0000
2023-05-21T04:07:57.838Z,100.0000
2023-05-21T04:09:00.359Z,100.0000
2023-05-21T04:10:03.175Z,100.0000
2023-05-21T04:11:04.873Z,100.0000
2023-05-21T04:12:06.574Z,100.0000
2023-05-21T04:13:08.260Z,100.0000
2023-05-21T04:15:11.795Z,100.0000
2023-05-21T04:16:13.550Z,100.0000
2023-05-21T04:18:16.797Z,100.0000
2023-05-21T04:19:18.609Z,100.0000
2023-05-21T04:20:20.594Z,100.0000
2023-05-21T04:22:24.524Z,100.0000
2023-05-21T04:23:27.186Z,100.0000
2023-05-21T04:24:28.909Z,100.0000
2023-05-21T04:25:30.654Z,100.0000
2023-05-21T04:26:32.336Z,100.0000
2023-05-21T04:27:34.806Z,100.0000
2023-05-21T04:28:37.108Z,100.0000
2023-05-21T04:29:38.809Z,100.0000
2023-05-21T04:30:40.516Z,100.0000
2023-05-21T04:31:42.964Z,100.0000
2023-05-21T04:32:44.757Z,100.0000
2023-05-21T04:33:46.420Z,100.0000
2023-05-21T04:34:48.128Z,100.0000
2023-05-21T04:35:50.899Z,100.0000
2023-05-21T04:44:03.968Z,99.8500
2023-05-21T04:45:06.360Z,99.7959
2023-05-21T04:46:08.034Z,99.7576
2023-05-21T04:47:09.784Z,99.7001
2023-05-21T04:48:12.323Z,99.6495
2023-05-21T04:49:14.054Z,99.5911
2023-05-21T04:50:15.706Z,99.5124
2023-05-21T04:51:18.060Z,99.4433
2023-05-21T04:52:19.759Z,99.3756
2023-05-21T04:53:21.461Z,99.2846
2023-05-21T04:54:23.170Z,99.1944
2023-05-21T04:55:25.665Z,99.1013
2023-05-21T04:56:28.031Z,99.0010
2023-05-21T04:57:29.730Z,98.9070
2023-05-21T04:58:31.446Z,98.8183
2023-05-21T04:59:33.759Z,98.7419
2023-05-21T05:00:36.082Z,98.6435
2023-05-21T05:01:37.775Z,98.5424
2023-05-21T05:03:41.759Z,98.3361
2023-05-21T05:04:44.135Z,98.2138
2023-05-21T05:05:45.843Z,98.0739
2023-05-21T05:06:47.543Z,97.9285
2023-05-21T05:07:49.519Z,97.7830
2023-05-21T05:08:51.246Z,97.6213
2023-05-21T05:09:52.951Z,97.4070
2023-05-21T05:11:56.823Z,97.1478
2023-05-21T05:12:58.994Z,96.9383
2023-05-21T05:14:00.696Z,96.8511
2023-05-21T05:15:02.774Z,96.9211
2023-05-21T05:16:04.603Z,97.0450
2023-05-21T05:17:06.318Z,97.1037
2023-05-21T05:20:11.866Z,97.1144
2023-05-21T05:21:14.350Z,96.9551
2023-05-21T05:22:16.654Z,96.8474
2023-05-21T05:24:20.651Z,96.5369
2023-05-21T05:25:22.352Z,96.4643
2023-05-21T05:26:24.059Z,96.5229
2023-05-21T05:28:27.971Z,96.4539
2023-05-21T05:29:30.274Z,96.3160
2023-05-21T05:30:32.002Z,96.1686
2023-05-21T05:33:37.846Z,95.5994
2023-05-21T05:34:40.211Z,95.4178
2023-05-21T05:35:42.566Z,95.3004
2023-05-21T05:36:45.007Z,95.3237
2023-05-21T05:37:46.741Z,95.2282
2023-05-21T05:39:50.630Z,95.2223
2023-05-21T05:40:52.987Z,94.9511
2023-05-21T05:41:54.860Z,94.8178
2023-05-21T05:42:56.783Z,94.7726
2023-05-21T05:43:58.542Z,94.6401
2023-05-21T05:45:01.655Z,94.8298
2023-05-21T05:46:00.645Z,94.8722
2023-05-21T05:47:02.581Z,94.9753
2023-05-21T05:48:05.624Z,95.3158
2023-05-21T05:49:07.988Z,95.5221
2023-05-21T05:50:09.731Z,95.1789
2023-05-21T05:51:12.110Z,95.2161
2023-05-21T05:52:14.535Z,94.9369
2023-05-21T05:53:16.285Z,94.4860
2023-05-21T05:55:20.519Z,94.1218
2023-05-21T05:56:23.101Z,94.2654
2023-05-21T05:57:26.039Z,94.4117
2023-05-21T06:04:37.275Z,92.8100
2023-05-21T06:05:39.937Z,93.0867
2023-05-21T06:07:41.571Z,93.5670
2023-05-21T06:08:43.441Z,93.3122
2023-05-21T06:09:45.857Z,93.6101
2023-05-21T06:10:48.411Z,93.7819
2023-05-21T06:11:51.052Z,93.7726
2023-05-21T06:12:53.453Z,93.1570
2023-05-21T06:13:55.192Z,92.9483
2023-05-21T06:14:56.917Z,92.8113
2023-05-21T06:15:59.310Z,93.0645
2023-05-21T06:17:00.997Z,93.1050
2023-05-21T06:20:05.052Z,93.4079
2023-05-21T06:21:07.589Z,92.7672
2023-05-21T06:22:10.019Z,91.9529
2023-05-21T06:23:11.754Z,92.4842
2023-05-21T06:24:14.105Z,91.5393
2023-05-21T06:25:14.289Z,90.9627
2023-05-21T06:32:24.803Z,87.2656
2023-05-21T06:33:27.743Z,87.6156
2023-05-21T06:34:27.672Z,87.3479
2023-05-21T06:36:31.660Z,88.0014
2023-05-21T06:37:33.392Z,88.7852
2023-05-21T06:38:35.332Z,88.1669
2023-05-21T06:39:37.275Z,87.7412
2023-05-21T06:40:39.792Z,87.2229
2023-05-21T06:41:42.348Z,86.8875
2023-05-21T06:42:44.083Z,87.5242
2023-05-21T06:43:46.321Z,87.5717
2023-05-21T06:44:49.214Z,87.8688
2023-05-21T06:45:50.985Z,87.0605
2023-05-21T06:46:52.695Z,86.3841
2023-05-21T06:47:54.468Z,88.0159
2023-05-21T06:48:56.890Z,87.2896
2023-05-21T06:49:59.213Z,86.3829
2023-05-21T06:51:01.598Z,85.8054
2023-05-21T06:52:03.365Z,85.9982
2023-05-21T06:54:07.416Z,85.5016
2023-05-21T06:55:09.167Z,85.8704
2023-05-21T06:56:11.070Z,86.2216
2023-05-21T06:57:12.820Z,86.4128
2023-05-21T06:59:16.991Z,85.2640
2023-05-21T07:02:20.874Z,84.7867
2023-05-21T07:03:21.459Z,84.4822
2023-05-21T07:10:32.031Z,85.9855
2023-05-21T07:12:33.582Z,84.0601
2023-05-21T07:13:35.916Z,83.0785
2023-05-21T07:14:38.477Z,82.0373
2023-05-21T07:15:40.218Z,82.4761
2023-05-21T07:16:42.011Z,81.6949
2023-05-21T07:17:43.779Z,80.4209
2023-05-21T07:18:46.224Z,79.6753
2023-05-21T07:19:48.289Z,81.7474
2023-05-21T07:21:52.480Z,83.5597
2023-05-21T07:22:55.053Z,83.7774
2023-05-21T07:23:57.616Z,82.2444
2023-05-21T07:24:59.338Z,80.9315
2023-05-21T07:26:01.219Z,81.9457
2023-05-21T07:27:08.766Z,81.2603
2023-05-21T07:28:06.806Z,82.0478
2023-05-21T07:37:21.512Z,77.5842
2023-05-21T07:38:23.233Z,78.2877
2023-05-21T07:39:25.115Z,79.2122
2023-05-21T07:40:27.111Z,78.9586
2023-05-21T07:41:29.272Z,78.2657
2023-05-21T07:42:31.031Z,76.9565
2023-05-21T07:43:32.768Z,77.8816
2023-05-21T07:44:34.654Z,78.1452
2023-05-21T07:45:37.404Z,77.5518
2023-05-21T07:46:38.532Z,78.0502
2023-05-21T07:48:40.104Z,75.2273
2023-05-21T07:49:40.366Z,74.3581
2023-05-21T07:50:40.241Z,74.1793
2023-05-21T07:51:42.857Z,78.5593
2023-05-21T07:52:45.426Z,77.4073
2023-05-21T07:53:47.899Z,76.9914
2023-05-21T07:54:49.908Z,78.3808
2023-05-21T07:55:51.790Z,75.1986
2023-05-21T07:58:56.678Z,76.2573
2023-05-21T08:01:01.191Z,73.7246
2023-05-21T08:02:03.536Z,76.0149
2023-05-21T08:03:05.310Z,77.0420
2023-05-21T08:04:07.359Z,78.5157
2023-05-21T08:05:10.817Z,77.4949
2023-05-21T08:06:11.348Z,76.8513
2023-05-21T08:07:13.605Z,76.6701
2023-05-21T08:08:16.210Z,78.1033
2023-05-21T08:09:18.151Z,78.4328
2023-05-21T08:11:22.589Z,76.4081
2023-05-21T08:12:24.332Z,76.1637
2023-05-21T08:13:26.793Z,76.9934
2023-05-21T08:14:28.709Z,75.0016
2023-05-21T08:16:33.512Z,72.7049
2023-05-21T08:17:35.474Z,71.6242
2023-05-21T08:18:37.727Z,72.4116
2023-05-21T08:19:40.145Z,72.0265
2023-05-21T08:20:42.926Z,71.7674
2023-05-21T08:24:48.907Z,73.9052
2023-05-21T08:25:51.727Z,75.7428
2023-05-21T08:27:56.081Z,69.5979
2023-05-21T08:28:58.411Z,70.4195
2023-05-21T08:30:00.850Z,70.4481
2023-05-21T08:31:02.568Z,72.1537
2023-05-21T08:32:04.318Z,72.0174
2023-05-21T08:33:06.786Z,72.1033
2023-05-21T08:34:08.537Z,72.9558
2023-05-21T08:35:10.258Z,70.8125
2023-05-21T08:36:12.076Z,69.0140
2023-05-21T08:37:14.081Z,72.0756
2023-05-21T08:38:16.468Z,70.8468
2023-05-21T08:39:18.919Z,69.4697
2023-05-21T08:40:21.239Z,62.7380
2023-05-21T08:41:22.950Z,65.3850
2023-05-21T08:42:35.742Z,65.9826
2023-05-21T08:44:31.184Z,68.8871
2023-05-21T08:50:38.382Z,68.3284
2023-05-21T08:53:41.227Z,71.2972
2023-05-21T08:54:42.942Z,72.4358
2023-05-21T08:55:44.677Z,70.4474
2023-05-21T08:56:47.154Z,69.6934
2023-05-21T08:58:07.757Z,70.5084
2023-05-21T08:58:50.599Z,74.8621
2023-05-21T08:59:53.019Z,73.8227
2023-05-21T09:00:55.441Z,73.6247
2023-05-21T09:01:57.271Z,73.0565
2023-05-21T09:02:59.980Z,69.3721
2023-05-21T09:04:16.155Z,71.6731
2023-05-21T09:05:04.387Z,72.7426
2023-05-21T09:06:06.145Z,73.5443
2023-05-21T09:07:08.605Z,69.6488
2023-05-21T09:08:11.390Z,67.6022
2023-05-21T09:09:13.108Z,65.2144
2023-05-21T09:12:19.452Z,70.7193
2023-05-21T09:13:21.849Z,68.3760
2023-05-21T09:14:23.585Z,65.5892
2023-05-21T09:16:27.575Z,67.8850
2023-05-21T09:17:30.093Z,65.3194
2023-05-21T09:18:31.800Z,62.5110
2023-05-21T09:19:33.711Z,62.4095
2023-05-21T09:20:36.545Z,62.5196
2023-05-21T09:24:40.701Z,66.2437
2023-05-21T09:25:42.468Z,66.4257
2023-05-21T09:26:45.133Z,66.0369
2023-05-21T09:27:45.104Z,66.3684
2023-05-21T09:28:47.522Z,66.7040
2023-05-21T09:29:49.260Z,66.1362
2023-05-21T09:31:00.060Z,66.2649
2023-05-21T09:37:06.443Z,63.4985
2023-05-21T09:41:09.789Z,62.8416
2023-05-21T09:42:11.987Z,62.0658
2023-05-21T09:44:15.754Z,63.2356
2023-05-21T09:45:17.712Z,64.8230
2023-05-21T09:46:19.482Z,66.0255
2023-05-21T09:48:22.794Z,63.3138
2023-05-21T09:49:26.212Z,66.5150
2023-05-21T09:53:31.143Z,65.9170
2023-05-21T09:54:32.864Z,65.3210
2023-05-21T09:55:34.622Z,66.4295
2023-05-21T09:56:36.464Z,64.3527
2023-05-21T09:57:38.174Z,66.0929
2023-05-21T09:58:39.953Z,66.4711
2023-05-21T09:59:41.703Z,67.2276
2023-05-21T10:00:43.461Z,67.5613
2023-05-21T10:02:47.585Z,67.7575
2023-05-21T10:03:50.739Z,68.3635
2023-05-21T10:04:50.474Z,65.8232
2023-05-21T10:06:54.399Z,63.8431
2023-05-21T10:07:56.735Z,64.2920
2023-05-21T10:08:59.085Z,64.6476
2023-05-21T10:10:00.825Z,64.4479
2023-05-21T10:11:02.687Z,63.5495
2023-05-21T10:12:05.467Z,65.7019
2023-05-21T10:13:07.897Z,61.1347
2023-05-21T10:14:09.649Z,63.6113
2023-05-21T10:15:11.374Z,64.8648
2023-05-21T10:16:13.865Z,64.5405
2023-05-21T10:17:16.382Z,64.1945
2023-05-21T10:18:18.708Z,65.7185
2023-05-21T10:19:21.220Z,66.5783
2023-05-21T10:20:22.970Z,64.6406
2023-05-21T10:21:25.271Z,64.0517
2023-05-21T10:22:27.708Z,64.5844
2023-05-21T10:23:29.529Z,64.7410
2023-05-21T10:24:31.248Z,64.9960
2023-05-21T10:26:35.340Z,64.6308
2023-05-21T10:27:37.944Z,63.8150
2023-05-21T10:28:40.407Z,62.8926
2023-05-21T10:29:42.615Z,64.8182
2023-05-21T10:30:45.135Z,64.8040
2023-05-21T10:31:47.573Z,64.1098
2023-05-21T10:32:50.372Z,62.2173
2023-05-21T10:34:04.982Z,61.1322
2023-05-21T10:35:55.146Z,62.6718
2023-05-21T10:36:57.969Z,64.0304
2023-05-21T10:39:20.814Z,62.1982
2023-05-21T10:40:01.081Z,62.1396
2023-05-21T10:41:02.809Z,61.7664
2023-05-21T10:42:05.191Z,62.5641
2023-05-21T10:43:07.527Z,59.7811
2023-05-21T10:44:10.067Z,59.4804
2023-05-21T10:45:11.834Z,61.4277
2023-05-21T10:46:13.611Z,60.7414
2023-05-21T10:47:16.069Z,61.9093
2023-05-21T10:48:18.970Z,62.4539
2023-05-21T10:51:21.205Z,59.7647
2023-05-21T10:52:22.960Z,59.0366
2023-05-21T10:53:24.826Z,58.7710
2023-05-21T10:54:26.669Z,58.9475
2023-05-21T10:55:28.965Z,58.1510
2023-05-21T10:56:30.673Z,59.5280
2023-05-21T10:57:33.067Z,60.6059
2023-05-21T10:58:34.847Z,62.8904
2023-05-21T10:59:36.609Z,62.2930
2023-05-21T11:00:38.464Z,62.7890
2023-05-21T11:03:44.880Z,61.5351
2023-05-21T11:04:46.637Z,60.3480
2023-05-21T11:05:48.466Z,64.3796
2023-05-21T11:06:50.231Z,64.2863
2023-05-21T11:07:52.126Z,62.5601
2023-05-21T11:08:55.362Z,62.1607
2023-05-21T11:09:54.714Z,61.2109
2023-05-21T11:10:58.564Z,59.6253
2023-05-21T11:11:58.216Z,60.2636
2023-05-21T11:13:00.601Z,59.8245
2023-05-21T11:14:03.152Z,60.6385
2023-05-21T11:15:05.455Z,59.9206
2023-05-21T11:17:09.685Z,59.2730
2023-05-21T11:18:12.668Z,60.4555
2023-05-21T11:27:27.550Z,61.1016
2023-05-21T11:28:29.322Z,59.4375
2023-05-21T11:29:31.109Z,59.5662
2023-05-21T11:30:35.238Z,59.7722
2023-05-21T11:31:35.441Z,60.2388
2023-05-21T11:32:37.170Z,59.9957
2023-05-21T11:33:38.910Z,58.0883
2023-05-21T11:34:40.657Z,57.2374
2023-05-21T11:36:44.838Z,57.5367
2023-05-21T11:37:47.233Z,56.6803
2023-05-21T11:38:49.684Z,57.2614
2023-05-21T11:39:52.744Z,56.2472
2023-05-21T11:40:52.862Z,55.1529
2023-05-21T11:41:53.409Z,54.6318
2023-05-21T11:44:57.199Z,49.1735
2023-05-21T11:49:43.362Z,51.0916
2023-05-21T11:50:44.248Z,55.0428
2023-05-21T11:51:46.206Z,55.6952
2023-05-21T11:52:48.871Z,52.5282
2023-05-21T11:53:51.512Z,51.5658
2023-05-21T11:54:53.344Z,52.3167
2023-05-21T11:55:55.278Z,51.6831
2023-05-21T11:56:57.272Z,52.7002
2023-05-21T11:57:59.682Z,49.2122
2023-05-21T11:59:00.629Z,48.6825
2023-05-21T12:00:00.835Z,47.2406
2023-05-21T12:01:03.672Z,50.8072
2023-05-21T12:02:06.262Z,49.8240
2023-05-21T12:03:08.993Z,46.8461
2023-05-21T12:04:10.852Z,47.7606
2023-05-21T12:05:13.338Z,47.6686
2023-05-21T12:07:17.659Z,49.2302
2023-05-21T12:12:24.204Z,45.8461
2023-05-21T12:13:26.572Z,50.3273
2023-05-21T12:18:35.482Z,51.1378
2023-05-21T12:20:37.316Z,51.0377
2023-05-21T12:22:38.493Z,48.8221
2023-05-21T12:25:44.153Z,46.2534
2023-05-21T12:26:46.156Z,47.9772
2023-05-21T12:27:48.106Z,48.8986
2023-05-21T12:28:48.186Z,48.5466
2023-05-21T12:29:50.016Z,50.9584
2023-05-21T12:30:52.304Z,50.5516
2023-05-21T12:31:54.265Z,51.4583
2023-05-21T12:32:57.203Z,51.4125
2023-05-21T12:33:59.598Z,51.3398
2023-05-21T12:35:02.232Z,50.2239
2023-05-21T12:36:04.762Z,50.7712
2023-05-21T12:37:07.171Z,50.5155
2023-05-21T12:43:15.219Z,52.3781
2023-05-21T12:44:17.231Z,51.7841
2023-05-21T12:45:19.242Z,52.7997
2023-05-21T12:46:21.763Z,50.8107
2023-05-21T12:47:24.368Z,54.5318
2023-05-21T12:48:26.946Z,49.7311
2023-05-21T12:49:29.857Z,52.3661
2023-05-21T12:50:30.540Z,55.0112
2023-05-21T12:51:32.981Z,53.9477
2023-05-21T12:52:34.796Z,53.8776
2023-05-21T12:53:36.555Z,51.9082
2023-05-21T12:54:39.688Z,51.7540
2023-05-21T12:58:44.769Z,53.7062
2023-05-21T12:59:47.124Z,54.3044
2023-05-21T13:00:49.499Z,54.0305
2023-05-21T13:01:52.143Z,52.5322
2023-05-21T13:02:54.878Z,53.9826
2023-05-21T13:03:57.638Z,53.2649
2023-05-21T13:04:57.229Z,54.1898
2023-05-21T13:06:00.045Z,53.0134
2023-05-21T13:07:04.849Z,53.1738
2023-05-21T13:08:04.836Z,53.1988
2023-05-21T13:09:06.556Z,52.5039
2023-05-21T13:10:08.324Z,54.2075
2023-05-21T13:11:10.964Z,52.0048
2023-05-21T13:12:12.835Z,53.6260
2023-05-21T13:13:14.612Z,52.7579
2023-05-21T13:14:16.453Z,52.0143
2023-05-21T13:15:18.879Z,53.3014
2023-05-21T13:16:21.648Z,51.0386
2023-05-21T13:24:35.091Z,55.5379
2023-05-21T13:26:36.661Z,53.9665
2023-05-21T13:27:39.177Z,54.3352
2023-05-21T13:28:42.673Z,53.4429
2023-05-21T13:29:42.516Z,53.8520
2023-05-21T13:30:45.019Z,53.3469
2023-05-21T13:31:47.533Z,54.7603
2023-05-21T13:32:49.472Z,51.8975
2023-05-21T13:33:51.454Z,54.7567
2023-05-21T13:35:55.851Z,52.3993
2023-05-21T13:36:58.452Z,51.0778
2023-05-21T13:38:01.054Z,52.9619
2023-05-21T13:39:03.449Z,54.5064
2023-05-21T13:40:05.273Z,53.7920
2023-05-21T13:41:07.688Z,49.3498
2023-05-21T13:42:10.278Z,48.4976
2023-05-21T13:43:12.866Z,49.4347
2023-05-21T13:44:15.374Z,48.5676
2023-05-21T13:45:17.177Z,51.0256
2023-05-21T13:46:19.048Z,50.5329
2023-05-21T13:47:21.374Z,49.5525
2023-05-21T13:48:23.875Z,50.1624
2023-05-21T13:49:26.373Z,51.5207
2023-05-21T13:51:38.806Z,49.7992
2023-05-21T13:52:30.463Z,50.4287
2023-05-21T13:53:32.942Z,50.2577
2023-05-21T13:54:33.721Z,49.7705
2023-05-21T13:55:33.530Z,50.6656
2023-05-21T13:56:35.277Z,48.9506
2023-05-21T13:57:37.959Z,50.2674
2023-05-21T13:58:39.790Z,51.3956
2023-05-21T14:00:44.006Z,51.9144
2023-05-21T14:01:44.535Z,56.9914
2023-05-21T14:02:44.314Z,51.9241
2023-05-21T14:03:46.880Z,51.7007
2023-05-21T14:04:49.559Z,48.2422
2023-05-21T14:05:51.534Z,45.9928
2023-05-21T14:06:53.348Z,47.2353
2023-05-21T14:07:55.935Z,54.9448
2023-05-21T14:10:59.491Z,45.9017
2023-05-21T14:12:01.731Z,48.6274
2023-05-21T14:13:15.370Z,46.2013
2023-05-21T14:14:04.434Z,44.4414
2023-05-21T14:15:06.975Z,44.9918
2023-05-21T14:16:08.810Z,45.6817
2023-05-21T14:18:11.668Z,43.7911
2023-05-21T14:19:15.100Z,45.9210
2023-05-21T14:28:28.786Z,42.2866
2023-05-21T14:29:31.265Z,43.5322
2023-05-21T14:30:33.615Z,41.7922
2023-05-21T14:31:36.108Z,43.8507
2023-05-21T14:33:39.562Z,43.5270
2023-05-21T14:34:41.352Z,41.9114
2023-05-21T14:35:44.404Z,43.5979
2023-05-21T14:39:48.437Z,44.5476
2023-05-21T14:40:51.093Z,44.4597
2023-05-21T14:41:53.751Z,42.0273
2023-05-21T14:42:56.089Z,45.8810
2023-05-21T14:43:58.497Z,44.3485
2023-05-21T14:45:16.816Z,44.8586
2023-05-21T14:47:05.956Z,39.5002
2023-05-21T14:48:08.593Z,44.9239
2023-05-21T14:49:11.532Z,40.4008
2023-05-21T14:55:21.532Z,52.8242
2023-05-21T14:56:23.981Z,45.2586
2023-05-21T14:57:26.456Z,55.9839
2023-05-21T14:59:28.742Z,49.4259
2023-05-21T15:00:32.028Z,48.8649
2023-05-21T15:08:45.557Z,63.4574
2023-05-21T15:12:53.609Z,60.8608
2023-05-21T15:15:57.189Z,58.6763
2023-05-21T15:16:59.679Z,56.8566
2023-05-21T15:18:02.364Z,59.7606
2023-05-21T15:20:04.612Z,48.6485
2023-05-21T15:21:07.082Z,53.3868
2023-05-21T15:22:09.547Z,47.8941
2023-05-21T15:23:17.290Z,43.8216
2023-05-21T15:24:14.171Z,46.6249
2023-05-21T15:25:18.316Z,48.2318
2023-05-21T15:26:17.981Z,50.6373
2023-05-21T15:27:20.941Z,51.9315
2023-05-21T15:29:22.515Z,41.4186
2023-05-21T15:30:25.038Z,41.8940
2023-05-21T15:31:27.131Z,41.8144
2023-05-21T15:32:29.152Z,40.0859
2023-05-21T15:33:31.677Z,38.4443
2023-05-21T15:34:33.358Z,38.6064
2023-05-21T15:35:35.349Z,38.6221
2023-05-21T15:36:37.378Z,40.4239
2023-05-21T15:37:39.231Z,37.7690
2023-05-21T15:38:41.564Z,37.6110
2023-05-21T15:39:44.137Z,38.3014
2023-05-21T15:42:48.530Z,38.4580
2023-05-21T15:43:50.989Z,39.1954
2023-05-21T15:44:52.861Z,40.3285
2023-05-21T15:46:56.651Z,40.5506
2023-05-21T15:47:58.472Z,40.8604
2023-05-21T15:49:01.601Z,43.5790
2023-05-21T15:51:02.280Z,38.4790
2023-05-21T15:52:04.408Z,40.4929
2023-05-21T15:53:06.277Z,39.9347
2023-05-21T15:54:19.872Z,39.6116
2023-05-21T15:55:11.161Z,40.1333
2023-05-21T15:56:12.950Z,38.6154
2023-05-21T15:57:14.800Z,40.5094
2023-05-21T15:58:39.853Z,40.1864
2023-05-21T16:00:21.612Z,39.8795
2023-05-21T16:01:23.679Z,39.3457
2023-05-21T16:02:25.601Z,39.4822
2023-05-21T16:03:27.478Z,41.0049
2023-05-21T16:04:29.834Z,40.2837
2023-05-21T16:05:31.609Z,42.0299
2023-05-21T16:06:33.438Z,40.2009
2023-05-21T16:07:37.967Z,38.8946
2023-05-21T16:08:37.999Z,39.7283
2023-05-21T16:09:39.776Z,40.3044
2023-05-21T16:10:41.643Z,40.4955
2023-05-21T16:11:44.041Z,41.4582
2023-05-21T16:12:46.084Z,39.5816
2023-05-21T16:13:48.598Z,41.3782
2023-05-21T16:14:51.048Z,40.4493
2023-05-21T16:15:52.859Z,43.5886
2023-05-21T16:16:55.449Z,41.9900
2023-05-21T16:17:58.075Z,48.0269
2023-05-21T16:19:00.517Z,45.8852
2023-05-21T16:20:03.181Z,43.9046
2023-05-21T16:21:05.093Z,45.0969
2023-05-21T16:22:07.864Z,41.6669
2023-05-21T16:23:08.274Z,41.9194
2023-05-21T16:24:10.079Z,44.0095
2023-05-21T16:25:11.891Z,45.2184
2023-05-21T16:26:13.968Z,43.6511
2023-05-21T16:27:16.971Z,46.2269
2023-05-21T16:29:18.209Z,47.7319
2023-05-21T16:30:20.635Z,47.4490
2023-05-21T16:31:23.346Z,46.8674
2023-05-21T16:32:25.177Z,47.7204
2023-05-21T16:33:27.038Z,50.8646
2023-05-21T16:35:31.188Z,54.8199
2023-05-21T16:36:32.991Z,53.9781
2023-05-21T16:37:35.491Z,55.6029
2023-05-21T16:38:38.237Z,51.3086
2023-05-21T16:39:40.033Z,57.0475
2023-05-21T16:40:41.850Z,50.0015
2023-05-21T16:41:43.627Z,53.7899
2023-05-21T16:42:46.093Z,48.9177